Time;durP1;ratioP1;P1;durP2;ratioP2;P2;SDS_P1;SDS_P2;PMS_P1;PMS_P2;Temp;Humidity;BMP_temperature;BMP_pressure;BME280_temperature;BME280_humidity;BME280_pressure;Samples;Min_cycle;Max_cycle;Signal;HPM_P1;HPM_P2
2022/05/20 00:01:21;;;;;;;11.52;3.67;;;;;;;;;;4835238;29;20046;-75
2022/05/20 00:03:51;;;;;;;19.90;3.95;;;;;;;;;;4835806;29;20058;-75
2022/05/20 00:06:21;;;;;;;17.00;4.22;;;;;;;;;;4835505;29;20070;-74
2022/05/20 00:08:51;;;;;;;18.52;4.50;;;;;;;;;;4835598;29;20536;-76
2022/05/20 00:11:21;;;;;;;8.82;3.85;;;;;;;;;;4835272;29;20057;-75
2022/05/20 00:13:51;;;;;;;18.77;3.75;;;;;;;;;;4835870;29;20454;-74
2022/05/20 00:16:22;;;;;;;11.13;4.75;;;;;;;;;;4834646;29;20442;-76
2022/05/20 00:18:52;;;;;;;15.50;4.93;;;;;;;;;;4836071;29;20061;-74
2022/05/20 00:21:22;;;;;;;11.98;4.45;;;;;;;;;;4835803;29;20066;-75
2022/05/20 00:23:52;;;;;;;13.90;4.43;;;;;;;;;;4835053;29;20120;-74
2022/05/20 00:26:23;;;;;;;19.65;5.13;;;;;;;;;;4835969;29;20054;-74
2022/05/20 00:28:55;;;;;;;14.32;5.43;;;;;;;;;;4835480;29;20058;-75
2022/05/20 00:31:27;;;;;;;14.55;6.03;;;;;;;;;;4835518;29;20058;-75
2022/05/20 00:33:57;;;;;;;17.92;6.10;;;;;;;;;;4836282;29;20046;-76
2022/05/20 00:36:27;;;;;;;13.38;6.45;;;;;;;;;;4835453;29;20046;-75
2022/05/20 00:38:57;;;;;;;15.90;6.90;;;;;;;;;;4835818;29;20046;-75
2022/05/20 00:41:27;;;;;;;22.50;6.43;;;;;;;;;;4835520;29;20041;-75
2022/05/20 00:43:58;;;;;;;14.13;5.65;;;;;;;;;;4835868;29;20054;-76
2022/05/20 00:46:29;;;;;;;10.05;6.43;;;;;;;;;;4835386;29;20038;-75
2022/05/20 00:49:13;;;;;;;15.57;6.63;;;;;;;;;;4835225;29;20081;-75
2022/05/20 00:51:48;;;;;;;27.25;10.82;;;;;;;;;;4835150;29;20050;-75
2022/05/20 00:54:35;;;;;;;23.23;13.23;;;;;;;;;;4835602;29;20046;-79
2022/05/20 00:57:28;;;;;;;24.88;14.18;;;;;;;;;;4833763;29;20050;-76
2022/05/20 01:00:13;;;;;;;39.53;22.98;;;;;;;;;;4834967;29;20061;-73
2022/05/20 01:02:46;;;;;;;32.17;18.65;;;;;;;;;;4834675;29;20049;-73
2022/05/20 01:05:37;;;;;;;38.30;20.77;;;;;;;;;;4834163;29;20056;-74
2022/05/20 01:08:11;;;;;;;44.80;20.10;;;;;;;;;;4833918;29;20057;-74
2022/05/20 01:10:42;;;;;;;45.75;20.35;;;;;;;;;;4815866;29;20637;-76
2022/05/20 01:13:14;;;;;;;48.55;21.67;;;;;;;;;;4814652;29;20058;-76
2022/05/20 01:15:45;;;;;;;43.13;21.25;;;;;;;;;;4817065;29;20058;-76
2022/05/20 01:18:16;;;;;;;32.65;17.73;;;;;;;;;;4816317;29;20071;-76
2022/05/20 01:20:56;;;;;;;35.90;18.98;;;;;;;;;;4817206;29;20418;-73
2022/05/20 01:23:28;;;;;;;40.40;19.77;;;;;;;;;;4816545;29;20407;-76
2022/05/20 01:26:00;;;;;;;45.33;18.20;;;;;;;;;;4800929;29;20054;-74
2022/05/20 01:28:32;;;;;;;125.68;15.65;;;;;;;;;;4816604;29;20050;-74
2022/05/20 01:31:21;;;;;;;27.08;16.38;;;;;;;;;;4818573;29;20053;-74
2022/05/20 01:33:52;;;;;;;30.60;17.38;;;;;;;;;;4819655;29;20074;-74
2022/05/20 01:36:24;;;;;;;;;;;;;;;;;;4820670;29;20514;-74
2022/05/20 01:38:57;;;;;;;27.33;15.70;;;;;;;;;;4819302;29;19939;-74
2022/05/20 01:42:04;;;;;;;35.35;16.33;;;;;;;;;;4820193;29;20054;-74
2022/05/20 01:44:49;;;;;;;29.15;16.17;;;;;;;;;;4813743;29;20063;-74
2022/05/20 01:47:33;;;;;;;29.15;16.42;;;;;;;;;;4818972;29;20422;-75
2022/05/20 01:50:48;;;;;;;31.50;17.88;;;;;;;;;;4820049;29;20518;-75
2022/05/20 01:53:36;;;;;;;27.58;15.85;;;;;;;;;;4790293;29;20058;-74
2022/05/20 01:56:22;;;;;;;35.10;15.98;;;;;;;;;;4819651;29;20503;-77
2022/05/20 01:59:15;;;;;;;26.58;14.35;;;;;;;;;;4819896;29;20174;-74
2022/05/20 02:02:24;;;;;;;29.73;14.45;;;;;;;;;;4819544;29;20053;-74
2022/05/20 02:05:05;;;;;;;32.08;14.88;;;;;;;;;;4813730;29;20062;-74
2022/05/20 02:07:42;;;;;;;24.02;12.30;;;;;;;;;;4819543;29;20066;-74
2022/05/20 02:10:22;;;;;;;21.45;13.95;;;;;;;;;;4819434;29;20054;-74
2022/05/20 02:12:58;;;;;;;25.83;12.50;;;;;;;;;;4819435;29;20062;-75
2022/05/20 02:15:44;;;;;;;25.95;13.82;;;;;;;;;;4803693;29;20058;-74
2022/05/20 02:18:21;;;;;;;27.48;12.68;;;;;;;;;;4819506;29;20054;-74
2022/05/20 02:20:55;;;;;;;29.60;12.90;;;;;;;;;;4819455;29;20054;-74
2022/05/20 02:23:31;;;;;;;25.67;12.40;;;;;;;;;;4819097;29;20046;-75
2022/05/20 02:26:06;;;;;;;25.20;12.93;;;;;;;;;;4819390;29;20548;-74
2022/05/20 02:28:41;;;;;;;24.40;12.05;;;;;;;;;;4803957;29;20054;-76
2022/05/20 02:31:17;;;;;;;19.23;11.55;;;;;;;;;;4802473;29;20244;-74
2022/05/20 02:33:48;;;;;;;23.33;10.02;;;;;;;;;;4819729;29;20049;-74
2022/05/20 02:36:19;;;;;;;23.65;10.90;;;;;;;;;;4819341;29;20164;-75
2022/05/20 02:38:50;;;;;;;23.05;11.00;;;;;;;;;;4818367;29;20058;-75
2022/05/20 02:41:21;;;;;;;25.10;10.63;;;;;;;;;;4818189;29;20058;-74
2022/05/20 02:43:52;;;;;;;17.23;10.52;;;;;;;;;;4819220;29;20560;-75
2022/05/20 02:46:22;;;;;;;28.30;10.50;;;;;;;;;;4819358;29;20063;-75
2022/05/20 02:48:53;;;;;;;14.63;10.00;;;;;;;;;;4819148;29;20058;-75
2022/05/20 02:51:24;;;;;;;19.42;9.73;;;;;;;;;;4818724;29;20537;-76
2022/05/20 02:53:54;;;;;;;19.85;10.40;;;;;;;;;;4817856;29;20519;-74
2022/05/20 02:56:24;;;;;;;23.27;9.27;;;;;;;;;;4803065;29;20046;-74
2022/05/20 03:04:33;;;;;;;21.45;10.20;;;;;;;;;;4818384;29;20431;-75
2022/05/20 03:07:03;;;;;;;21.87;9.97;;;;;;;;;;4818947;29;20053;-75
2022/05/20 03:09:33;;;;;;;15.20;9.80;;;;;;;;;;4818696;29;20330;-76
2022/05/20 03:12:05;;;;;;;19.27;9.90;;;;;;;;;;4818445;29;20069;-75
2022/05/20 03:14:35;;;;;;;27.50;9.02;;;;;;;;;;4818871;29;20058;-74
2022/05/20 03:17:06;;;;;;;23.93;8.90;;;;;;;;;;4818498;29;20078;-73
2022/05/20 03:19:37;;;;;;;18.10;9.20;;;;;;;;;;4818832;29;20782;-75
2022/05/20 03:22:08;;;;;;;16.15;8.02;;;;;;;;;;4818922;29;20051;-75
2022/05/20 03:24:39;;;;;;;29.80;8.45;;;;;;;;;;4818400;29;20050;-75
2022/05/20 03:27:10;;;;;;;21.88;7.80;;;;;;;;;;4818476;29;20065;-75
2022/05/20 03:29:40;;;;;;;;;;;;;;;;;;4819061;29;20054;-75
2022/05/20 03:32:11;;;;;;;18.98;6.13;;;;;;;;;;4817187;29;19929;-75
2022/05/20 03:34:41;;;;;;;17.48;6.95;;;;;;;;;;4818148;29;20062;-75
2022/05/20 03:37:12;;;;;;;17.43;6.27;;;;;;;;;;4818379;29;20050;-75
2022/05/20 03:39:42;;;;;;;11.90;6.07;;;;;;;;;;4818706;29;20222;-74
2022/05/20 03:42:12;;;;;;;23.80;5.63;;;;;;;;;;4818613;29;20054;-75
2022/05/20 03:44:43;;;;;;;9.35;5.30;;;;;;;;;;4818424;29;20308;-74
2022/05/20 03:47:13;;;;;;;16.73;4.80;;;;;;;;;;4817981;29;20066;-75
2022/05/20 03:49:43;;;;;;;19.60;4.82;;;;;;;;;;4818572;29;20050;-75
2022/05/20 03:52:14;;;;;;;17.38;5.35;;;;;;;;;;4817946;29;20410;-76
2022/05/20 03:54:44;;;;;;;;;;;;;;;;;;4818347;29;20081;-75
2022/05/20 03:57:14;;;;;;;15.60;5.18;;;;;;;;;;4818037;29;19933;-74
2022/05/20 03:59:45;;;;;;;13.75;5.43;;;;;;;;;;4817727;29;20054;-75
2022/05/20 04:02:14;;;;;;;23.25;5.30;;;;;;;;;;4817438;29;20058;-76
2022/05/20 04:04:49;;;;;;;18.85;5.65;;;;;;;;;;4817562;29;20515;-75
2022/05/20 04:07:24;;;;;;;15.70;5.10;;;;;;;;;;4818316;29;20065;-75
2022/05/20 04:09:54;;;;;;;18.25;6.05;;;;;;;;;;4801716;29;20054;-76
2022/05/20 04:12:26;;;;;;;20.67;5.22;;;;;;;;;;4817996;29;20061;-76
2022/05/20 04:14:57;;;;;;;20.60;5.20;;;;;;;;;;4815884;29;20617;-74
2022/05/20 04:17:27;;;;;;;20.70;5.10;;;;;;;;;;4817863;29;20054;-75
2022/05/20 04:19:58;;;;;;;5.70;4.40;;;;;;;;;;4817999;29;20780;-75
2022/05/20 04:22:32;;;;;;;16.40;4.28;;;;;;;;;;4818264;29;20070;-75
2022/05/20 04:25:04;;;;;;;18.83;4.82;;;;;;;;;;4818044;29;20645;-76
2022/05/20 04:27:35;;;;;;;8.98;4.72;;;;;;;;;;4817793;29;20054;-76
2022/05/20 04:30:07;;;;;;;22.88;4.97;;;;;;;;;;4815878;29;20503;-75
2022/05/20 04:32:38;;;;;;;13.57;5.22;;;;;;;;;;4817106;29;20139;-74
2022/05/20 04:35:09;;;;;;;18.80;5.10;;;;;;;;;;4816433;29;20058;-74
2022/05/20 04:37:39;;;;;;;21.13;4.70;;;;;;;;;;4786342;29;20054;-74
2022/05/20 04:40:10;;;;;;;17.10;5.38;;;;;;;;;;4817613;29;20050;-75
2022/05/20 04:48:37;;;;;;;14.95;4.93;;;;;;;;;;4742439;30;20063;-74
2022/05/20 04:51:07;;;;;;;21.77;5.00;;;;;;;;;;4743288;30;20564;-76
2022/05/20 04:56:25;;;;;;;20.05;6.53;;;;;;;;;;4817438;29;20526;-75
2022/05/20 04:58:56;;;;;;;25.67;7.22;;;;;;;;;;4817235;29;20379;-75
2022/05/20 05:01:26;;;;;;;17.35;7.13;;;;;;;;;;4816700;29;20034;-74
2022/05/20 05:03:56;;;;;;;20.65;7.28;;;;;;;;;;4816802;29;20399;-74
2022/05/20 05:06:26;;;;;;;12.75;6.10;;;;;;;;;;4819660;29;20058;-75
2022/05/20 05:08:56;;;;;;;11.90;5.80;;;;;;;;;;4820824;29;20057;-75
2022/05/20 05:11:26;;;;;;;16.02;5.88;;;;;;;;;;4818965;29;20518;-74
2022/05/20 05:13:56;;;;;;;17.33;6.03;;;;;;;;;;4820807;29;20065;-75
2022/05/20 05:16:26;;;;;;;13.52;5.63;;;;;;;;;;4820383;29;20425;-75
2022/05/20 05:18:56;;;;;;;16.33;5.45;;;;;;;;;;4819145;29;20651;-73
2022/05/20 05:21:26;;;;;;;17.65;5.97;;;;;;;;;;4819981;29;20058;-75
2022/05/20 05:23:57;;;;;;;16.27;5.80;;;;;;;;;;4819981;29;20058;-76
2022/05/20 05:26:31;;;;;;;16.38;5.93;;;;;;;;;;4819955;29;20057;-74
2022/05/20 05:29:03;;;;;;;11.88;5.20;;;;;;;;;;4820114;29;20410;-74
2022/05/20 05:31:33;;;;;;;13.70;5.15;;;;;;;;;;4820706;29;20050;-75
2022/05/20 05:34:04;;;;;;;14.68;5.90;;;;;;;;;;4820293;29;20383;-74
2022/05/20 05:36:35;;;;;;;14.05;5.68;;;;;;;;;;4820168;29;20046;-75
2022/05/20 05:39:06;;;;;;;13.63;5.47;;;;;;;;;;4820002;29;20061;-74
2022/05/20 05:41:37;;;;;;;;;;;;;;;;;;4820453;29;20057;-74
2022/05/20 05:44:07;;;;;;;12.55;4.82;;;;;;;;;;4820270;29;19935;-75
2022/05/20 05:46:37;;;;;;;14.30;5.10;;;;;;;;;;4819590;29;20519;-75
2022/05/20 05:49:07;;;;;;;15.43;4.93;;;;;;;;;;4820156;29;20526;-75
2022/05/20 05:51:37;;;;;;;16.63;5.22;;;;;;;;;;4820268;29;20088;-74
2022/05/20 05:54:08;;;;;;;12.15;4.45;;;;;;;;;;4804796;29;20046;-75
2022/05/20 05:56:39;;;;;;;16.05;5.15;;;;;;;;;;4819990;29;20046;-75
2022/05/20 05:59:09;;;;;;;11.45;4.78;;;;;;;;;;4820236;29;20062;-75
2022/05/20 06:01:39;;;;;;;21.73;4.75;;;;;;;;;;4819495;29;20054;-75
2022/05/20 06:04:11;;;;;;;23.30;5.50;;;;;;;;;;4819640;29;20062;-75
2022/05/20 06:06:42;;;;;;;14.45;5.07;;;;;;;;;;4820146;29;20372;-74
2022/05/20 06:09:12;;;;;;;18.88;5.55;;;;;;;;;;4819958;29;20061;-73
2022/05/20 06:11:43;;;;;;;13.02;5.55;;;;;;;;;;4802675;29;20070;-75
2022/05/20 06:14:14;;;;;;;11.90;5.53;;;;;;;;;;4819518;29;20054;-73
2022/05/20 06:16:49;;;;;;;11.85;4.88;;;;;;;;;;4819424;29;20054;-75
2022/05/20 06:19:19;;;;;;;13.20;5.40;;;;;;;;;;4819502;29;20057;-76
2022/05/20 06:21:50;;;;;;;12.82;5.45;;;;;;;;;;4819389;29;20054;-75
2022/05/20 06:24:26;;;;;;;13.48;4.53;;;;;;;;;;4819067;29;20054;-75
2022/05/20 06:26:56;;;;;;;12.65;4.85;;;;;;;;;;4819176;29;20062;-74
2022/05/20 06:29:27;;;;;;;12.35;4.82;;;;;;;;;;4819252;29;20058;-75
2022/05/20 06:31:57;;;;;;;15.13;5.60;;;;;;;;;;4819499;29;20071;-74
2022/05/20 06:39:48;;;;;;;12.50;5.25;;;;;;;;;;4819474;29;20414;-75
2022/05/20 06:40:16;;;;;;;11.10;5.10;;;;;;;;;;4819126;29;20046;-75
2022/05/20 06:42:47;;;;;;;11.05;4.32;;;;;;;;;;4819712;29;20058;-75
2022/05/20 06:45:18;;;;;;;10.98;4.43;;;;;;;;;;4819217;29;20876;-75
2022/05/20 06:47:48;;;;;;;13.45;5.43;;;;;;;;;;4819389;29;20058;-74
2022/05/20 06:50:18;;;;;;;14.63;4.85;;;;;;;;;;4819313;29;20057;-74
2022/05/20 06:52:49;;;;;;;15.35;4.78;;;;;;;;;;4818802;29;20054;-73
2022/05/20 06:55:19;;;;;;;11.55;4.75;;;;;;;;;;4818872;29;20061;-75
2022/05/20 06:57:51;;;;;;;18.42;4.43;;;;;;;;;;4818546;29;20054;-73
2022/05/20 07:00:22;;;;;;;8.77;4.22;;;;;;;;;;4818713;29;20050;-75
2022/05/20 07:02:52;;;;;;;13.25;3.83;;;;;;;;;;4818940;29;20065;-74
2022/05/20 07:05:22;;;;;;;13.68;4.57;;;;;;;;;;4818738;29;20050;-76
2022/05/20 07:07:56;;;;;;;8.60;4.60;;;;;;;;;;4817853;29;20513;-75
2022/05/20 07:10:26;;;;;;;13.85;4.22;;;;;;;;;;4818256;29;20054;-76
2022/05/20 07:12:57;;;;;;;12.70;4.68;;;;;;;;;;4818937;29;20050;-74
2022/05/20 07:15:27;;;;;;;10.35;4.45;;;;;;;;;;4818655;29;20061;-73
2022/05/20 07:17:57;;;;;;;12.55;4.15;;;;;;;;;;4818554;29;20042;-74
2022/05/20 07:20:27;;;;;;;14.75;4.70;;;;;;;;;;4818068;29;20423;-75
2022/05/20 07:22:57;;;;;;;11.68;5.00;;;;;;;;;;4818113;29;20069;-74
2022/05/20 07:25:27;;;;;;;15.57;4.57;;;;;;;;;;4818644;29;20410;-76
2022/05/20 07:28:00;;;;;;;13.00;5.00;;;;;;;;;;4817709;29;20053;-73
2022/05/20 07:30:30;;;;;;;11.50;4.28;;;;;;;;;;4816714;29;20058;-74
2022/05/20 07:33:00;;;;;;;16.73;4.68;;;;;;;;;;4817427;29;20050;-75
2022/05/20 07:35:31;;;;;;;12.02;4.90;;;;;;;;;;4817667;29;20548;-75
2022/05/20 07:38:01;;;;;;;16.43;4.43;;;;;;;;;;4818307;29;20051;-74
2022/05/20 07:40:31;;;;;;;7.32;3.70;;;;;;;;;;4817964;29;20046;-74
2022/05/20 07:43:01;;;;;;;10.38;3.95;;;;;;;;;;4818398;29;20057;-75
2022/05/20 07:45:31;;;;;;;13.20;4.47;;;;;;;;;;4817994;29;20054;-73
2022/05/20 07:48:01;;;;;;;12.07;3.95;;;;;;;;;;4817734;29;20050;-74
2022/05/20 07:50:39;;;;;;;11.13;4.60;;;;;;;;;;4817815;29;20446;-74
2022/05/20 07:53:32;;;;;;;11.40;4.07;;;;;;;;;;4817645;29;20600;-73
2022/05/20 07:56:15;;;;;;;7.88;3.80;;;;;;;;;;4817695;29;20061;-74
2022/05/20 07:58:58;;;;;;;14.35;4.32;;;;;;;;;;4817855;29;20069;-73
2022/05/20 08:01:31;;;;;;;11.40;4.45;;;;;;;;;;4818111;29;20502;-75
2022/05/20 08:07:02;;;;;;;10.65;4.50;;;;;;;;;;4818032;29;20168;-74
2022/05/20 08:09:32;;;;;;;18.77;5.22;;;;;;;;;;4818309;29;20043;-75
2022/05/20 08:12:02;;;;;;;10.18;4.85;;;;;;;;;;4818280;29;20054;-75
2022/05/20 08:14:41;;;;;;;12.13;5.53;;;;;;;;;;4818051;29;20058;-74
2022/05/20 08:17:12;;;;;;;9.35;4.85;;;;;;;;;;4818328;29;20051;-75
2022/05/20 08:19:43;;;;;;;9.70;5.43;;;;;;;;;;4818033;29;20061;-73
2022/05/20 08:22:14;;;;;;;12.88;4.95;;;;;;;;;;4817443;29;20556;-74
2022/05/20 08:24:44;;;;;;;11.40;5.50;;;;;;;;;;4817841;29;20050;-75
2022/05/20 08:27:14;;;;;;;15.63;4.90;;;;;;;;;;4817606;29;20427;-74
2022/05/20 08:29:44;;;;;;;10.63;4.43;;;;;;;;;;4817957;29;20058;-74
2022/05/20 08:32:15;;;;;;;9.68;4.40;;;;;;;;;;4817878;29;20050;-73
2022/05/20 08:34:47;;;;;;;10.93;4.90;;;;;;;;;;4817652;29;20065;-75
2022/05/20 08:37:19;;;;;;;14.15;4.68;;;;;;;;;;4818487;29;20050;-75
2022/05/20 08:39:49;;;;;;;10.32;4.72;;;;;;;;;;4819153;29;20057;-74
2022/05/20 08:42:30;;;;;;;9.00;4.93;;;;;;;;;;4820933;29;20054;-74
2022/05/20 08:45:03;;;;;;;14.95;4.78;;;;;;;;;;4804459;29;20061;-75
2022/05/20 08:47:46;;;;;;;11.25;4.65;;;;;;;;;;4820996;29;20050;-73
2022/05/20 08:50:20;;;;;;;19.60;5.13;;;;;;;;;;4820705;29;20050;-74
2022/05/20 08:52:53;;;;;;;8.48;4.38;;;;;;;;;;4820335;29;20058;-75
2022/05/20 08:55:23;;;;;;;14.38;4.57;;;;;;;;;;4820996;29;20521;-75
2022/05/20 08:58:02;;;;;;;11.48;4.10;;;;;;;;;;4820557;29;20062;-74
2022/05/20 09:00:32;;;;;;;11.30;3.67;;;;;;;;;;4803276;29;20062;-75
2022/05/20 09:03:06;;;;;;;16.48;4.13;;;;;;;;;;4821670;29;20047;-74
2022/05/20 09:05:38;;;;;;;11.13;4.10;;;;;;;;;;4821242;29;20498;-74
2022/05/20 09:08:18;;;;;;;13.70;4.25;;;;;;;;;;4820535;29;20789;-73
2022/05/20 09:10:53;;;;;;;11.65;4.15;;;;;;;;;;4820340;29;20406;-74
2022/05/20 09:16:21;;;;;;;8.77;3.97;;;;;;;;;;4820276;29;20172;-75
2022/05/20 09:19:11;;;;;;;11.43;4.35;;;;;;;;;;4820969;29;20590;-75
2022/05/20 09:21:58;;;;;;;18.58;8.55;;;;;;;;;;4820364;29;20400;-76
2022/05/20 09:24:37;;;;;;;11.70;5.38;;;;;;;;;;4820302;29;20396;-74
2022/05/20 09:27:10;;;;;;;10.93;4.53;;;;;;;;;;4818752;29;20061;-75
2022/05/20 09:30:08;;;;;;;22.45;4.00;;;;;;;;;;4804411;29;20051;-75
2022/05/20 09:32:43;;;;;;;8.02;3.50;;;;;;;;;;4820189;29;20079;-75
2022/05/20 09:35:21;;;;;;;6.78;3.50;;;;;;;;;;4820244;29;20050;-75
2022/05/20 09:37:53;;;;;;;13.35;4.65;;;;;;;;;;4819460;29;20507;-74
2022/05/20 09:40:47;;;;;;;20.00;8.30;;;;;;;;;;4819949;29;20050;-78
2022/05/20 09:43:30;;;;;;;17.73;6.47;;;;;;;;;;4819594;29;20411;-74
2022/05/20 09:46:03;;;;;;;15.30;5.50;;;;;;;;;;4803436;29;20062;-74
2022/05/20 09:49:04;;;;;;;19.90;5.63;;;;;;;;;;4819634;29;20055;-74
2022/05/20 09:51:46;;;;;;;23.70;5.15;;;;;;;;;;4816092;29;20082;-75
2022/05/20 09:54:39;;;;;;;6.10;3.72;;;;;;;;;;4820050;29;20057;-74
2022/05/20 09:57:28;;;;;;;13.23;5.57;;;;;;;;;;4819684;29;20066;-73
2022/05/20 10:00:25;;;;;;;13.27;4.80;;;;;;;;;;4819652;29;20054;-76
2022/05/20 10:03:16;;;;;;;14.40;4.22;;;;;;;;;;4819695;29;20042;-75
2022/05/20 10:06:08;;;;;;;9.60;5.72;;;;;;;;;;4820152;29;20058;-74
2022/05/20 10:08:54;;;;;;;17.42;6.03;;;;;;;;;;4818865;29;20916;-75
2022/05/20 10:11:35;;;;;;;13.10;5.78;;;;;;;;;;4819368;29;20061;-74
2022/05/20 10:14:14;;;;;;;11.32;5.68;;;;;;;;;;4819825;29;20420;-74
2022/05/20 10:16:59;;;;;;;10.10;5.00;;;;;;;;;;4819577;29;20058;-74
2022/05/20 10:19:54;;;;;;;21.52;5.38;;;;;;;;;;4803021;29;20054;-73
2022/05/20 10:22:52;;;;;;;15.32;6.38;;;;;;;;;;4820040;29;20058;-74
2022/05/20 10:25:37;;;;;;;16.38;6.00;;;;;;;;;;4802721;29;20055;-79
2022/05/20 10:28:13;;;;;;;;;;;;;;;;;;4819608;29;20392;-76
2022/05/20 10:33:46;;;;;;;19.08;6.63;;;;;;;;;;4817981;29;20049;-75
2022/05/20 10:36:20;;;;;;;13.98;7.05;;;;;;;;;;4800566;29;20062;-75
2022/05/20 10:39:15;;;;;;;19.33;7.88;;;;;;;;;;4818865;29;20059;-75
2022/05/20 10:42:23;;;;;;;14.95;7.03;;;;;;;;;;4819478;29;20046;-76
2022/05/20 10:48:35;;;;;;;24.92;8.05;;;;;;;;;;4819906;29;20054;-74
2022/05/20 10:51:24;;;;;;;20.50;7.72;;;;;;;;;;4818340;29;20053;-75
2022/05/20 10:54:15;;;;;;;21.65;7.30;;;;;;;;;;4818781;29;20097;-76
2022/05/20 10:57:08;;;;;;;20.60;7.68;;;;;;;;;;4819069;29;20061;-76
2022/05/20 11:00:13;;;;;;;32.78;10.65;;;;;;;;;;4818428;29;20054;-77
2022/05/20 11:03:06;;;;;;;20.77;10.05;;;;;;;;;;4800767;29;20073;-75
2022/05/20 11:06:07;;;;;;;16.65;8.85;;;;;;;;;;4817084;29;20568;-75
2022/05/20 11:08:48;;;;;;;14.80;7.95;;;;;;;;;;4818311;29;20050;-78
2022/05/20 11:12:00;;;;;;;10.55;7.03;;;;;;;;;;4819044;29;20047;-74
2022/05/20 11:14:51;;;;;;;13.30;6.05;;;;;;;;;;4818871;29;20049;-73
2022/05/20 11:17:49;;;;;;;10.50;6.07;;;;;;;;;;4818729;29;20038;-73
2022/05/20 11:20:59;;;;;;;14.13;5.85;;;;;;;;;;4818005;29;20058;-75
2022/05/20 11:23:41;;;;;;;17.15;6.95;;;;;;;;;;4818117;29;20058;-79
2022/05/20 11:26:45;;;;;;;13.05;7.38;;;;;;;;;;4818665;29;20594;-79
2022/05/20 11:29:57;;;;;;;22.63;7.65;;;;;;;;;;4817948;29;20404;-79
2022/05/20 11:32:42;;;;;;;22.13;7.75;;;;;;;;;;4818488;29;20046;-75
2022/05/20 11:35:47;;;;;;;47.85;8.60;;;;;;;;;;4814994;29;20046;-74
2022/05/20 11:38:55;;;;;;;17.67;6.78;;;;;;;;;;4814466;29;20081;-75
2022/05/20 11:41:51;;;;;;;14.73;6.18;;;;;;;;;;4799975;29;20050;-75
2022/05/20 11:44:32;;;;;;;19.65;6.25;;;;;;;;;;4818437;29;20058;-75
2022/05/20 11:47:25;;;;;;;28.80;7.75;;;;;;;;;;4817697;29;20537;-75
2022/05/20 11:50:15;;;;;;;14.10;6.07;;;;;;;;;;4818392;29;20481;-75
2022/05/20 11:53:17;;;;;;;19.58;5.80;;;;;;;;;;4801316;29;20054;-75
2022/05/20 11:55:58;;;;;;;9.80;4.60;;;;;;;;;;4817877;29;20050;-75
2022/05/20 11:58:47;;;;;;;20.40;9.23;;;;;;;;;;4816851;29;20548;-74
2022/05/20 12:01:18;;;;;;;12.57;4.88;;;;;;;;;;4817813;29;20054;-80
2022/05/20 12:04:07;;;;;;;24.38;6.78;;;;;;;;;;4817938;29;20050;-75
2022/05/20 12:06:54;;;;;;;20.83;7.35;;;;;;;;;;4818131;29;20506;-75
2022/05/20 12:09:43;;;;;;;12.68;5.30;;;;;;;;;;4818416;29;20054;-81
2022/05/20 12:12:19;;;;;;;31.55;5.78;;;;;;;;;;4817842;29;20050;-74
2022/05/20 12:15:06;;;;;;;14.80;4.85;;;;;;;;;;4817636;29;20053;-75
2022/05/20 12:17:48;;;;;;;11.23;5.10;;;;;;;;;;4817009;29;20580;-74
2022/05/20 12:26:38;;;;;;;9.80;4.53;;;;;;;;;;4818009;29;20053;-75
2022/05/20 12:29:37;;;;;;;10.98;5.28;;;;;;;;;;4817995;29;20050;-75
2022/05/20 12:32:29;;;;;;;7.45;3.85;;;;;;;;;;4769447;29;20057;-76
2022/05/20 12:35:11;;;;;;;7.15;3.40;;;;;;;;;;4817868;29;20061;-75
2022/05/20 12:37:45;;;;;;;33.67;5.20;;;;;;;;;;4817825;29;20054;-74
2022/05/20 12:40:24;;;;;;;;;;;;;;;;;;4818306;29;20058;-74
2022/05/20 12:42:57;;;;;;;16.90;3.65;;;;;;;;;;4816796;29;19929;-78
2022/05/20 12:45:51;;;;;;;13.88;3.60;;;;;;;;;;4801144;29;20070;-76
2022/05/20 12:48:30;;;;;;;7.72;3.47;;;;;;;;;;4817302;29;20058;-76
2022/05/20 12:51:08;;;;;;;4.40;2.80;;;;;;;;;;4801648;29;20538;-75
2022/05/20 12:53:39;;;;;;;21.85;3.70;;;;;;;;;;4817262;29;20422;-74
2022/05/20 12:56:26;;;;;;;7.90;2.85;;;;;;;;;;4817290;29;20055;-75
2022/05/20 12:59:13;;;;;;;5.15;2.45;;;;;;;;;;4817172;29;20062;-74
2022/05/20 13:01:57;;;;;;;6.13;2.58;;;;;;;;;;4817389;29;20058;-74
2022/05/20 13:04:30;;;;;;;6.18;2.97;;;;;;;;;;4800679;29;20136;-75
2022/05/20 13:07:01;;;;;;;6.07;3.47;;;;;;;;;;4817510;29;20050;-73
2022/05/20 13:09:42;;;;;;;8.82;4.03;;;;;;;;;;4817386;29;20461;-74
2022/05/20 13:12:18;;;;;;;5.93;3.88;;;;;;;;;;4817150;29;20065;-76
2022/05/20 13:15:02;;;;;;;8.73;4.50;;;;;;;;;;4816523;29;20058;-74
2022/05/20 13:17:33;;;;;;;27.52;6.45;;;;;;;;;;4801586;29;20061;-75
2022/05/20 13:20:05;;;;;;;8.45;5.18;;;;;;;;;;4817650;29;20055;-73
2022/05/20 13:22:49;;;;;;;8.25;5.00;;;;;;;;;;4817822;29;20046;-74
2022/05/20 13:25:20;;;;;;;6.10;3.92;;;;;;;;;;4817980;29;20050;-74
2022/05/20 13:27:51;;;;;;;10.38;3.78;;;;;;;;;;4820529;29;20054;-74
2022/05/20 13:30:26;;;;;;;7.93;3.33;;;;;;;;;;4820239;29;20057;-76
2022/05/20 13:33:09;;;;;;;11.45;3.58;;;;;;;;;;4820318;29;20081;-78
2022/05/20 13:35:53;;;;;;;7.45;3.03;;;;;;;;;;4820639;29;20057;-74
2022/05/20 13:38:27;;;;;;;4.65;2.92;;;;;;;;;;4820561;29;20054;-73
2022/05/20 13:40:58;;;;;;;4.93;2.80;;;;;;;;;;4820453;29;20046;-74
2022/05/20 13:43:30;;;;;;;5.13;2.83;;;;;;;;;;4820167;29;20057;-76
2022/05/20 13:49:13;;;;;;;3.97;2.50;;;;;;;;;;4820306;29;20057;-75
2022/05/20 13:51:46;;;;;;;6.43;2.65;;;;;;;;;;4820225;29;20054;-76
2022/05/20 13:54:33;;;;;;;5.97;2.67;;;;;;;;;;4819818;29;20062;-74
2022/05/20 13:57:05;;;;;;;17.48;4.63;;;;;;;;;;4820441;29;20058;-77
2022/05/20 13:59:37;;;;;;;5.95;2.80;;;;;;;;;;4820387;29;20125;-75
2022/05/20 14:02:10;;;;;;;4.63;2.75;;;;;;;;;;4820028;29;20055;-74
2022/05/20 14:04:46;;;;;;;6.25;2.92;;;;;;;;;;4819474;29;20054;-75
2022/05/20 14:07:35;;;;;;;7.05;3.00;;;;;;;;;;4819503;29;20046;-74
2022/05/20 14:10:23;;;;;;;5.18;2.90;;;;;;;;;;4820102;29;20395;-77
2022/05/20 14:13:03;;;;;;;5.00;2.58;;;;;;;;;;4819587;29;20443;-75
2022/05/20 14:15:49;;;;;;;9.55;2.83;;;;;;;;;;4820218;29;20038;-74
2022/05/20 14:18:25;;;;;;;6.88;3.00;;;;;;;;;;4819977;29;20054;-76
2022/05/20 14:21:20;;;;;;;5.05;2.28;;;;;;;;;;4820654;29;20056;-73
2022/05/20 14:24:06;;;;;;;10.30;2.53;;;;;;;;;;4813029;29;20066;-74
2022/05/20 14:26:48;;;;;;;9.07;3.38;;;;;;;;;;4819443;29;20061;-75
2022/05/20 14:29:37;;;;;;;11.85;2.30;;;;;;;;;;4819702;29;20057;-73
2022/05/20 14:32:14;;;;;;;8.82;3.15;;;;;;;;;;4819388;29;20074;-75
2022/05/20 14:34:55;;;;;;;7.03;2.53;;;;;;;;;;4819422;29;20058;-76
2022/05/20 14:37:33;;;;;;;8.43;2.22;;;;;;;;;;4818637;29;20842;-74
2022/05/20 14:40:12;;;;;;;6.07;2.80;;;;;;;;;;4819553;29;20534;-74
2022/05/20 14:42:54;;;;;;;2.70;1.80;;;;;;;;;;4803629;29;20065;-73
2022/05/20 14:45:39;;;;;;;3.88;2.08;;;;;;;;;;4819591;29;20511;-73
2022/05/20 14:48:19;;;;;;;9.77;2.90;;;;;;;;;;4819581;29;20411;-75
2022/05/20 14:50:54;;;;;;;8.63;3.05;;;;;;;;;;4819207;29;20054;-75
2022/05/20 14:53:35;;;;;;;4.28;2.08;;;;;;;;;;4818810;29;20081;-75
2022/05/20 14:56:05;;;;;;;3.80;2.20;;;;;;;;;;4819116;29;20050;-76
2022/05/20 14:58:35;;;;;;;3.97;2.63;;;;;;;;;;4818704;29;20555;-75
2022/05/20 15:01:10;;;;;;;4.82;2.33;;;;;;;;;;4818265;29;20054;-75
2022/05/20 15:03:46;;;;;;;5.38;3.25;;;;;;;;;;4819800;29;20062;-75
2022/05/20 15:06:25;;;;;;;5.35;3.03;;;;;;;;;;4818912;29;20053;-78
2022/05/20 15:08:56;;;;;;;6.60;2.83;;;;;;;;;;4818813;29;20058;-75
2022/05/20 15:11:29;;;;;;;8.43;3.22;;;;;;;;;;4818435;29;20069;-75
2022/05/20 15:14:00;;;;;;;6.53;2.97;;;;;;;;;;4819316;29;20794;-75
2022/05/20 15:16:30;;;;;;;7.77;3.97;;;;;;;;;;4818610;29;20046;-76
2022/05/20 15:19:00;;;;;;;13.65;5.35;;;;;;;;;;4819061;29;20102;-73
2022/05/20 15:21:33;;;;;;;6.60;2.92;;;;;;;;;;4818762;29;20046;-73
2022/05/20 15:24:19;;;;;;;13.77;3.90;;;;;;;;;;4818270;29;20055;-72
2022/05/20 15:26:50;;;;;;;5.68;2.88;;;;;;;;;;4818172;29;20058;-73
2022/05/20 15:29:21;;;;;;;6.72;3.38;;;;;;;;;;4819249;29;20054;-73
2022/05/20 15:34:54;;;;;;;6.50;2.80;;;;;;;;;;4818724;29;20058;-79
2022/05/20 15:37:26;;;;;;;8.48;2.95;;;;;;;;;;4818951;29;20047;-76
2022/05/20 15:39:59;;;;;;;5.70;2.72;;;;;;;;;;4819107;29;20059;-74
2022/05/20 15:42:30;;;;;;;3.13;2.22;;;;;;;;;;4818222;29;20073;-75
2022/05/20 15:45:01;;;;;;;4.03;2.33;;;;;;;;;;4818536;29;20065;-74
2022/05/20 15:47:31;;;;;;;7.38;2.78;;;;;;;;;;4818274;29;20106;-73
2022/05/20 15:50:01;;;;;;;8.23;3.28;;;;;;;;;;4817761;29;20054;-75
2022/05/20 15:52:39;;;;;;;6.03;2.85;;;;;;;;;;4818812;29;20054;-75
2022/05/20 15:55:17;;;;;;;4.40;2.50;;;;;;;;;;4817686;29;20602;-74
2022/05/20 15:57:48;;;;;;;7.90;3.00;;;;;;;;;;4798253;29;20062;-75
2022/05/20 16:00:18;;;;;;;4.88;2.65;;;;;;;;;;4800017;29;20522;-72
2022/05/20 16:02:48;;;;;;;4.78;2.30;;;;;;;;;;4799611;29;20051;-74
2022/05/20 16:05:18;;;;;;;6.82;3.42;;;;;;;;;;4799449;29;20057;-73
2022/05/20 16:07:52;;;;;;;6.95;2.10;;;;;;;;;;4799386;29;20515;-75
2022/05/20 16:10:26;;;;;;;5.20;2.38;;;;;;;;;;4800166;29;20039;-74
2022/05/20 16:13:04;;;;;;;5.43;2.58;;;;;;;;;;4799604;29;20063;-74